createdAt,value
2023-06-11T00:00:32.343Z,60.46
2023-06-11T00:02:59.767Z,60.63
2023-06-11T00:05:30.646Z,60.67
2023-06-11T00:08:01.801Z,60.60
2023-06-11T00:10:29.333Z,60.59
2023-06-11T00:12:56.906Z,60.59
2023-06-11T00:15:25.053Z,60.54
2023-06-11T00:17:52.294Z,60.51
2023-06-11T00:20:21.573Z,60.63
2023-06-11T00:22:48.825Z,60.51
2023-06-11T00:25:16.564Z,60.49
2023-06-11T00:27:43.897Z,60.57
2023-06-11T00:30:12.420Z,60.59
2023-06-11T00:32:40.668Z,60.59
2023-06-11T00:35:09.989Z,60.59
2023-06-11T00:37:38.756Z,60.52
2023-06-11T00:40:09.215Z,60.48
2023-06-11T00:42:37.019Z,60.60
2023-06-11T00:45:06.672Z,60.55
2023-06-11T00:47:40.680Z,60.47
2023-06-11T00:50:09.502Z,60.50
2023-06-11T00:52:37.573Z,60.65
2023-06-11T00:55:05.507Z,60.54
2023-06-11T00:58:51.571Z,60.38
2023-06-11T01:01:27.088Z,60.48
2023-06-11T01:03:57.877Z,60.51
2023-06-11T01:06:30.098Z,60.50
2023-06-11T01:08:59.185Z,60.46
2023-06-11T01:11:36.902Z,60.40
2023-06-11T01:14:08.844Z,60.31
2023-06-11T01:16:48.627Z,60.29
2023-06-11T01:19:46.318Z,60.22
2023-06-11T01:22:19.367Z,60.25
2023-06-11T01:25:04.840Z,60.22
2023-06-11T01:27:59.743Z,60.14
2023-06-11T01:30:30.436Z,60.27
2023-06-11T01:32:58.725Z,60.18
2023-06-11T01:35:31.538Z,60.31
2023-06-11T01:38:01.187Z,60.30
2023-06-11T01:40:36.683Z,60.36
2023-06-11T01:43:05.822Z,60.29
2023-06-11T01:45:34.776Z,60.31
2023-06-11T01:48:02.966Z,60.48
2023-06-11T01:50:31.652Z,60.41
2023-06-11T01:52:59.741Z,60.36
2023-06-11T01:55:29.676Z,60.42
2023-06-11T01:57:57.795Z,60.35
2023-06-11T02:00:25.875Z,60.35
2023-06-11T02:02:54.179Z,60.45
2023-06-11T02:05:22.763Z,60.47
2023-06-11T02:07:51.406Z,60.49
2023-06-11T02:10:19.495Z,60.39
2023-06-11T02:12:47.599Z,60.47
2023-06-11T02:15:16.035Z,60.46
2023-06-11T02:17:44.190Z,60.37
2023-06-11T02:20:15.369Z,60.43
2023-06-11T02:22:44.159Z,60.46
2023-06-11T02:25:12.465Z,60.34
2023-06-11T02:27:41.152Z,60.50
2023-06-11T02:30:09.702Z,60.56
2023-06-11T02:32:37.869Z,60.44
2023-06-11T02:35:06.397Z,60.46
2023-06-11T02:37:34.477Z,60.44
2023-06-11T02:40:02.567Z,60.37
2023-06-11T02:42:30.650Z,60.32
2023-06-11T02:44:59.064Z,60.27
2023-06-11T02:47:27.076Z,60.16
2023-06-11T02:49:55.093Z,60.05
2023-06-11T02:52:23.505Z,60.01
2023-06-11T02:54:51.666Z,59.97
2023-06-11T02:57:19.799Z,59.92
2023-06-11T02:59:47.930Z,60.02
2023-06-11T03:02:16.485Z,59.83
2023-06-11T03:04:44.836Z,59.77
2023-06-11T03:07:13.473Z,59.69
2023-06-11T03:09:41.650Z,59.62
2023-06-11T03:12:10.291Z,59.66
2023-06-11T03:14:39.657Z,59.63
2023-06-11T03:17:07.686Z,59.52
2023-06-11T03:19:35.870Z,59.49
2023-06-11T03:22:05.022Z,59.42
2023-06-11T03:24:33.646Z,59.42
2023-06-11T03:27:10.327Z,59.35
2023-06-11T03:29:38.728Z,59.35
2023-06-11T03:32:07.982Z,59.12
2023-06-11T03:34:37.399Z,59.20
2023-06-11T03:37:05.795Z,59.28
2023-06-11T03:43:00.907Z,59.12
2023-06-11T03:45:30.443Z,59.06
2023-06-11T03:47:59.683Z,59.09
2023-06-11T03:50:27.868Z,59.16
2023-06-11T03:52:56.012Z,59.03
2023-06-11T03:55:24.330Z,59.14
2023-06-11T03:57:52.706Z,59.18
2023-06-11T04:00:21.041Z,59.02
2023-06-11T04:02:49.363Z,59.24
2023-06-11T04:05:18.103Z,59.08
2023-06-11T04:07:52.247Z,59.17
2023-06-11T04:10:20.922Z,59.29
2023-06-11T04:12:49.796Z,59.30
2023-06-11T04:15:17.848Z,59.28
2023-06-11T04:17:47.073Z,59.44
2023-06-11T04:20:16.393Z,59.42
2023-06-11T04:22:44.569Z,59.49
2023-06-11T04:25:13.803Z,59.46
2023-06-11T04:27:42.285Z,59.60
2023-06-11T04:30:14.470Z,59.54
2023-06-11T04:32:44.004Z,59.60
2023-06-11T04:35:15.809Z,59.67
2023-06-11T04:37:46.863Z,59.64
2023-06-11T04:40:22.370Z,59.66
2023-06-11T04:42:50.963Z,59.68
2023-06-11T04:45:22.497Z,59.68
2023-06-11T04:47:51.696Z,59.62
2023-06-11T04:50:22.641Z,59.73
2023-06-11T04:52:58.138Z,59.71
2023-06-11T04:55:27.998Z,59.72
2023-06-11T04:57:58.670Z,59.79
2023-06-11T05:00:31.422Z,59.79
2023-06-11T05:03:03.646Z,59.80
2023-06-11T05:05:34.709Z,59.80
2023-06-11T05:08:03.700Z,59.79
2023-06-11T05:10:32.056Z,59.87
2023-06-11T05:13:02.433Z,59.81
2023-06-11T05:15:33.553Z,59.84
2023-06-11T05:18:02.170Z,59.87
2023-06-11T05:20:31.469Z,59.84
2023-06-11T05:23:00.897Z,59.98
2023-06-11T05:25:31.800Z,60.06
2023-06-11T05:28:02.844Z,59.86
2023-06-11T05:30:38.217Z,59.98
2023-06-11T05:33:08.628Z,59.95
2023-06-11T05:35:37.664Z,59.99
2023-06-11T05:38:07.685Z,59.95
2023-06-11T05:40:40.245Z,60.06
2023-06-11T05:43:08.349Z,60.05
2023-06-11T05:45:37.364Z,60.12
2023-06-11T05:48:07.642Z,60.18
2023-06-11T05:50:38.190Z,60.13
2023-06-11T05:53:06.252Z,60.15
2023-06-11T05:55:34.560Z,60.07
2023-06-11T05:58:03.601Z,60.23
2023-06-11T06:00:31.694Z,60.08
2023-06-11T06:03:00.055Z,60.11
2023-06-11T06:05:29.880Z,60.17
2023-06-11T06:07:58.230Z,60.16
2023-06-11T06:10:26.822Z,60.21
2023-06-11T06:12:55.229Z,60.18
2023-06-11T06:15:23.411Z,60.17
2023-06-11T06:17:51.775Z,60.14
2023-06-11T06:20:26.663Z,60.27
2023-06-11T06:22:55.383Z,60.30
2023-06-11T06:25:27.030Z,60.15
2023-06-11T06:27:55.435Z,60.21
2023-06-11T06:30:23.713Z,60.19
2023-06-11T06:32:51.776Z,60.19
2023-06-11T06:35:21.229Z,60.12
2023-06-11T06:37:49.435Z,60.13
2023-06-11T06:40:18.296Z,60.16
2023-06-11T06:48:57.452Z,60.09
2023-06-11T06:51:25.816Z,60.01
2023-06-11T06:53:54.284Z,59.94
2023-06-11T06:56:23.423Z,59.92
2023-06-11T06:58:51.700Z,59.93
2023-06-11T07:01:20.172Z,59.89
2023-06-11T07:03:48.546Z,60.01
2023-06-11T07:06:17.569Z,59.99
2023-06-11T07:08:46.930Z,59.86
2023-06-11T07:11:16.960Z,59.96
2023-06-11T07:13:47.055Z,59.79
2023-06-11T07:16:16.171Z,60.05
2023-06-11T07:18:52.420Z,60.01
2023-06-11T07:21:20.601Z,59.92
2023-06-11T07:23:48.925Z,59.94
2023-06-11T07:26:19.502Z,60.03
2023-06-11T07:28:48.055Z,60.07
2023-06-11T07:31:16.392Z,60.13
2023-06-11T07:33:45.708Z,60.16
2023-06-11T07:36:13.924Z,60.02
2023-06-11T07:38:44.088Z,60.11
2023-06-11T07:41:13.262Z,60.11
2023-06-11T07:43:41.396Z,60.14
2023-06-11T07:46:10.584Z,59.99
2023-06-11T07:48:43.228Z,60.09
2023-06-11T07:51:11.556Z,60.10
2023-06-11T07:53:40.220Z,60.19
2023-06-11T07:56:09.200Z,59.97
2023-06-11T07:58:37.645Z,60.09
2023-06-11T08:01:05.667Z,60.14
2023-06-11T08:03:34.951Z,59.98
2023-06-11T08:06:03.031Z,60.06
2023-06-11T08:08:31.391Z,60.04
2023-06-11T08:11:00.627Z,60.09
